Time;durP1;ratioP1;P1;durP2;ratioP2;P2;SDS_P1;SDS_P2;PMS_P1;PMS_P2;Temp;Humidity;BMP_temperature;BMP_pressure;BME280_temperature;BME280_humidity;BME280_pressure;Samples;Min_cycle;Max_cycle;Signal;HPM_P1;HPM_P2
2021/09/08 00:00:33;;;;;;;;;;;;;;;17.58;72.56;101976.66;5051770;28;19929;-42
2021/09/08 00:03:00;;;;;;;;;;;;;;;17.56;72.62;101982.09;5051094;28;20406;-43
2021/09/08 00:05:27;;;;;;;;;;;;;;;17.56;72.68;101984.75;5052521;28;19947;-44
2021/09/08 00:07:53;;;;;;;;;;;;;;;17.53;72.62;101974.38;5051191;28;19935;-47
2021/09/08 00:10:20;;;;;;;;;;;;;;;17.50;72.80;101979.91;5068018;28;20735;-47
2021/09/08 00:12:47;;;;;;;;;;;;;;;17.52;72.74;101971.81;5066441;28;19925;-45
2021/09/08 00:15:13;;;;;;;;;;;;;;;17.47;72.79;101971.34;5051458;28;19925;-45
2021/09/08 00:17:40;;;;;;;;;;;;;;;17.44;73.02;101971.53;5051849;28;19954;-45
2021/09/08 00:20:08;;;;;;;;;;;;;;;17.45;72.98;101967.94;5050918;28;19932;-45
2021/09/08 00:22:35;;;;;;;;;;;;;;;17.37;72.99;101969.38;5051782;28;20413;-45
2021/09/08 00:25:02;;;;;;;;;;;;;;;17.38;73.36;101973.72;5052685;28;19925;-47
2021/09/08 00:27:29;;;;;;;;;;;;;;;17.33;73.07;101965.25;5050497;28;20046;-44
2021/09/08 00:29:56;;;;;;;;;;;;;;;17.37;72.94;101966.72;5034445;28;20410;-52
2021/09/08 00:32:22;;;;;;;;;;;;;;;17.32;73.06;101960.06;5051998;28;20276;-48
2021/09/08 00:34:49;;;;;;;;;;;;;;;17.30;73.02;101965.50;5052057;28;19955;-52
2021/09/08 00:37:16;;;;;;;;;;;;;;;17.30;73.16;101961.97;5050861;28;20387;-52
2021/09/08 00:39:42;;;;;;;;;;;;;;;17.26;73.20;101956.06;5052638;28;19928;-51
2021/09/08 00:42:13;;;;;;;;;;;;;;;17.29;73.34;101955.81;5048808;28;19925;-51
2021/09/08 00:44:40;;;;;;;;;;;;;;;17.26;73.12;101961.38;5052017;28;20532;-51
2021/09/08 00:47:06;;;;;;;;;;;;;;;17.21;73.32;101958.22;5052590;28;19925;-50
2021/09/08 00:49:33;;;;;;;;;;;;;;;17.20;72.76;101954.69;5051151;28;19958;-47
2021/09/08 00:52:03;;;;;;;;;;;;;;;17.16;72.87;101952.41;5052023;28;19970;-48
2021/09/08 00:54:30;;;;;;;;;;;;;;;17.12;72.70;101948.28;5050893;28;19932;-47
2021/09/08 00:56:57;;;;;;;;;;;;;;;17.09;72.83;101957.31;5066189;28;19929;-45
2021/09/08 00:59:24;;;;;;;;;;;;;;;17.02;73.10;101948.97;5066152;28;19937;-47
2021/09/08 01:01:50;;;;;;;;;;;;;;;17.02;72.95;101948.97;5051904;28;20368;-48
2021/09/08 01:04:18;;;;;;;;;;;;;;;17.02;72.95;101948.97;5050322;28;20292;-45
2021/09/08 01:06:44;;;;;;;;;;;;;;;17.01;72.96;101949.91;5051624;28;19929;-47
2021/09/08 01:09:11;;;;;;;;;;;;;;;17.00;73.27;101945.59;5051742;28;19925;-45
2021/09/08 01:11:38;;;;;;;;;;;;;;;16.98;73.44;101950.16;5065938;28;19936;-44
2021/09/08 01:14:05;;;;;;;;;;;;;;;16.95;73.28;101947.75;5051172;28;19925;-47
2021/09/08 01:16:31;;;;;;;;;;;;;;;16.90;73.91;101945.41;5051385;28;19936;-44
2021/09/08 01:18:58;;;;;;;;;;;;;;;16.88;73.89;101943.81;5049911;28;19928;-44
2021/09/08 01:21:25;;;;;;;;;;;;;;;16.81;73.89;101948.75;5051670;28;19931;-45
2021/09/08 01:23:51;;;;;;;;;;;;;;;16.85;73.83;101941.38;5066587;28;19933;-43
2021/09/08 01:26:18;;;;;;;;;;;;;;;16.92;73.67;101947.97;5049423;28;19952;-45
2021/09/08 01:28:45;;;;;;;;;;;;;;;16.85;73.47;101933.41;5050420;28;19925;-44
2021/09/08 01:31:12;;;;;;;;;;;;;;;16.80;73.97;101940.88;5050905;28;19925;-45
2021/09/08 01:33:38;;;;;;;;;;;;;;;16.83;73.72;101938.84;5051014;28;19929;-44
2021/09/08 01:36:05;;;;;;;;;;;;;;;16.87;73.51;101939.47;5050892;28;19925;-47
2021/09/08 01:38:32;;;;;;;;;;;;;;;16.84;73.60;101935.22;5066200;28;19931;-43
2021/09/08 01:40:58;;;;;;;;;;;;;;;16.77;73.61;101938.44;5050777;28;19932;-45
2021/09/08 01:43:25;;;;;;;;;;;;;;;16.73;73.64;101924.56;5048111;28;20339;-44
2021/09/08 01:45:52;;;;;;;;;;;;;;;16.65;73.59;101934.91;5050719;28;19924;-42
2021/09/08 01:48:19;;;;;;;;;;;;;;;16.55;74.05;101927.59;5066061;28;20027;-48
2021/09/08 01:50:46;;;;;;;;;;;;;;;16.62;73.69;101930.66;5051079;28;19925;-47
2021/09/08 01:53:12;;;;;;;;;;;;;;;16.56;74.05;101926.66;5049033;28;20395;-48
2021/09/08 01:55:39;;;;;;;;;;;;;;;16.58;73.93;101928.31;5066233;28;19929;-49
2021/09/08 01:58:06;;;;;;;;;;;;;;;16.57;73.70;101922.19;5049721;28;19924;-48
2021/09/08 02:00:33;;;;;;;;;;;;;;;16.53;74.01;101931.34;5050223;28;19964;-54
2021/09/08 02:02:59;;;;;;;;;;;;;;;16.46;73.94;101924.78;5049869;28;19931;-52
2021/09/08 02:05:26;;;;;;;;;;;;;;;16.47;74.26;101921.16;5050265;28;20003;-43
2021/09/08 02:07:53;;;;;;;;;;;;;;;16.39;74.65;101925.22;5050412;28;19982;-43
2021/09/08 02:10:19;;;;;;;;;;;;;;;16.36;74.64;101920.13;5050383;28;20880;-42
2021/09/08 02:12:46;;;;;;;;;;;;;;;16.30;75.19;101917.09;5048250;28;19970;-45
2021/09/08 02:15:13;;;;;;;;;;;;;;;16.17;75.72;101923.28;5049877;28;19931;-43
2021/09/08 02:17:40;;;;;;;;;;;;;;;16.20;75.40;101922.22;5050953;28;20438;-47
2021/09/08 02:20:07;;;;;;;;;;;;;;;16.26;75.15;101921.75;5065653;28;19971;-44
2021/09/08 02:22:34;;;;;;;;;;;;;;;16.25;74.97;101924.53;5048331;28;20311;-43
2021/09/08 02:25:00;;;;;;;;;;;;;;;16.27;74.96;101928.75;5050240;28;20087;-45
2021/09/08 02:27:27;;;;;;;;;;;;;;;16.31;75.00;101921.44;5049013;28;19932;-47
2021/09/08 02:29:54;;;;;;;;;;;;;;;16.23;75.02;101928.13;5049874;28;19928;-45
2021/09/08 02:32:20;;;;;;;;;;;;;;;16.18;75.37;101922.31;5050114;28;19991;-44
2021/09/08 02:34:47;;;;;;;;;;;;;;;16.17;75.49;101919.75;5049826;28;19983;-43
2021/09/08 02:37:14;;;;;;;;;;;;;;;16.12;75.54;101916.59;5049758;28;20455;-48
2021/09/08 02:39:40;;;;;;;;;;;;;;;16.11;75.45;101923.69;5049032;28;19932;-46
2021/09/08 02:42:07;;;;;;;;;;;;;;;16.14;75.50;101925.28;5046939;28;20877;-46
2021/09/08 02:44:34;;;;;;;;;;;;;;;16.07;75.39;101919.56;5049297;28;19933;-48
2021/09/08 02:47:01;;;;;;;;;;;;;;;16.05;76.10;101911.72;5049861;28;20383;-46
2021/09/08 02:49:27;;;;;;;;;;;;;;;16.09;75.86;101909.72;5048862;28;19932;-44
2021/09/08 02:51:54;;;;;;;;;;;;;;;16.07;76.03;101902.81;5049584;28;20315;-44
2021/09/08 02:54:21;;;;;;;;;;;;;;;16.05;75.57;101902.94;5049723;28;20019;-46
2021/09/08 02:56:47;;;;;;;;;;;;;;;16.09;75.68;101903.53;5048883;28;20399;-45
2021/09/08 02:59:14;;;;;;;;;;;;;;;16.04;75.61;101898.56;5064493;28;19975;-45
2021/09/08 03:01:40;;;;;;;;;;;;;;;16.02;75.99;101897.81;5048589;28;19929;-45
2021/09/08 03:04:08;;;;;;;;;;;;;;;15.96;76.34;101901.78;5049698;28;19935;-44
2021/09/08 03:06:34;;;;;;;;;;;;;;;15.88;76.43;101896.16;5065238;28;20357;-43
2021/09/08 03:09:01;;;;;;;;;;;;;;;15.85;76.80;101893.72;5049948;28;19925;-45
2021/09/08 03:11:28;;;;;;;;;;;;;;;15.86;76.76;101898.09;5048868;28;19978;-47
2021/09/08 03:13:54;;;;;;;;;;;;;;;15.84;76.97;101900.84;5048566;28;19939;-42
2021/09/08 03:16:21;;;;;;;;;;;;;;;15.84;76.95;101900.00;5049855;28;20358;-46
2021/09/08 03:18:48;;;;;;;;;;;;;;;15.88;76.60;101893.50;5049646;28;19964;-44
2021/09/08 03:21:15;;;;;;;;;;;;;;;15.86;76.56;101890.13;5052300;28;19951;-47
2021/09/08 03:23:41;;;;;;;;;;;;;;;15.82;76.83;101893.97;5049327;28;19925;-44
2021/09/08 03:26:08;;;;;;;;;;;;;;;15.66;77.54;101899.47;5049726;28;19975;-50
2021/09/08 03:28:34;;;;;;;;;;;;;;;15.70;77.10;101896.47;5046190;28;19979;-49
2021/09/08 03:31:01;;;;;;;;;;;;;;;15.65;77.37;101897.75;5049528;28;19998;-50
2021/09/08 03:33:28;;;;;;;;;;;;;;;15.71;77.16;101887.56;5049236;28;20570;-49
2021/09/08 03:35:54;;;;;;;;;;;;;;;15.64;77.64;101886.31;5049384;28;20391;-45
2021/09/08 03:38:21;;;;;;;;;;;;;;;15.66;77.46;101886.19;5064847;28;19940;-44
2021/09/08 03:40:48;;;;;;;;;;;;;;;15.66;77.37;101891.50;5049772;28;19932;-45
2021/09/08 03:43:14;;;;;;;;;;;;;;;15.66;77.44;101884.38;5047827;28;20307;-47
2021/09/08 03:45:41;;;;;;;;;;;;;;;15.66;77.50;101873.78;5049754;28;20356;-43
2021/09/08 03:48:08;;;;;;;;;;;;;;;15.66;77.62;101868.47;5065023;28;19935;-44
2021/09/08 03:50:35;;;;;;;;;;;;;;;15.64;77.68;101872.22;5048978;28;19933;-45
2021/09/08 03:53:02;;;;;;;;;;;;;;;15.61;77.83;101873.28;5052316;28;20000;-42
2021/09/08 03:55:28;;;;;;;;;;;;;;;15.65;77.91;101865.94;5051623;28;19925;-44
2021/09/08 03:57:55;;;;;;;;;;;;;;;15.58;77.76;101867.34;5050163;28;19928;-51
2021/09/08 04:00:22;;;;;;;;;;;;;;;15.49;78.36;101868.84;5052688;28;19928;-50
2021/09/08 04:02:48;;;;;;;;;;;;;;;15.49;78.38;101871.50;5053213;28;19986;-48
2021/09/08 04:05:15;;;;;;;;;;;;;;;15.47;78.52;101862.78;5051813;28;19974;-49
2021/09/08 04:07:42;;;;;;;;;;;;;;;15.45;78.67;101867.34;5052949;28;19925;-49
2021/09/08 04:10:09;;;;;;;;;;;;;;;15.45;78.50;101867.34;5052733;28;19924;-47
2021/09/08 04:12:36;;;;;;;;;;;;;;;15.47;78.40;101860.13;5050804;28;19955;-50
2021/09/08 04:15:05;;;;;;;;;;;;;;;15.51;78.56;101856.31;5052497;28;19929;-49
2021/09/08 04:17:32;;;;;;;;;;;;;;;15.48;78.50;101861.84;5052992;28;19974;-48
2021/09/08 04:19:59;;;;;;;;;;;;;;;15.51;78.08;101861.59;5051830;28;19925;-50
2021/09/08 04:22:26;;;;;;;;;;;;;;;15.47;78.27;101865.44;5051555;28;19925;-53
2021/09/08 04:24:52;;;;;;;;;;;;;;;15.51;78.40;101857.16;5052193;28;19925;-51
2021/09/08 04:27:19;;;;;;;;;;;;;;;15.46;78.48;101859.28;5050488;28;19937;-51
2021/09/08 04:29:45;;;;;;;;;;;;;;;15.52;78.38;101852.72;5050699;28;19929;-49
2021/09/08 04:32:12;;;;;;;;;;;;;;;15.48;78.20;101854.72;5052423;28;20376;-49
2021/09/08 04:34:39;;;;;;;;;;;;;;;15.44;78.63;101852.41;5052158;28;19931;-49
2021/09/08 04:37:05;;;;;;;;;;;;;;;15.38;79.07;101843.91;5052257;28;19924;-52
2021/09/08 04:39:32;;;;;;;;;;;;;;;15.37;79.25;101847.50;5052129;28;20318;-50
2021/09/08 04:41:59;;;;;;;;;;;;;;;15.36;79.21;101843.16;5051144;28;19936;-51
2021/09/08 04:44:25;;;;;;;;;;;;;;;15.38;79.07;101846.56;5051705;28;19928;-50
2021/09/08 04:46:52;;;;;;;;;;;;;;;15.45;78.66;101848.81;5052600;28;19932;-51
2021/09/08 04:49:23;;;;;;;;;;;;;;;15.34;79.33;101842.44;5051688;28;19956;-50
2021/09/08 04:51:49;;;;;;;;;;;;;;;15.37;79.22;101839.56;5066929;28;19967;-50
2021/09/08 04:54:16;;;;;;;;;;;;;;;15.33;79.32;101840.72;5051962;28;19924;-47
2021/09/08 04:56:42;;;;;;;;;;;;;;;15.29;79.63;101839.25;5050801;28;19929;-50
2021/09/08 04:59:09;;;;;;;;;;;;;;;15.29;79.59;101838.41;5051004;28;20457;-52
2021/09/08 05:01:36;;;;;;;;;;;;;;;15.22;79.86;101838.00;5051671;28;19928;-51
2021/09/08 05:04:03;;;;;;;;;;;;;;;15.19;80.14;101843.50;5051579;28;19925;-53
2021/09/08 05:06:30;;;;;;;;;;;;;;;15.20;80.31;101834.59;5051848;28;19929;-51
2021/09/08 05:08:57;;;;;;;;;;;;;;;15.23;80.00;101838.81;5051374;28;19928;-49
2021/09/08 05:11:23;;;;;;;;;;;;;;;15.20;79.99;101832.78;5050953;28;20334;-54
2021/09/08 05:13:50;;;;;;;;;;;;;;;15.20;79.64;101824.84;5050692;28;19982;-52
2021/09/08 05:16:17;;;;;;;;;;;;;;;15.13;80.19;101826.19;5051220;28;20315;-49
2021/09/08 05:18:43;;;;;;;;;;;;;;;15.11;80.46;101829.94;5033737;28;19928;-48
2021/09/08 05:21:10;;;;;;;;;;;;;;;15.09;80.33;101832.66;5050447;28;19932;-47
2021/09/08 05:23:38;;;;;;;;;;;;;;;15.08;80.39;101831.00;5051313;28;20350;-52
2021/09/08 05:26:05;;;;;;;;;;;;;;;14.98;81.11;101828.13;5051217;28;19925;-50
2021/09/08 05:28:32;;;;;;;;;;;;;;;15.04;80.63;101835.66;5064782;28;19932;-52
2021/09/08 05:30:59;;;;;;;;;;;;;;;15.03;80.57;101828.63;5051637;28;20338;-51
2021/09/08 05:33:25;;;;;;;;;;;;;;;15.06;80.64;101832.06;5050360;28;20398;-49
2021/09/08 05:35:52;;;;;;;;;;;;;;;15.09;80.20;101832.66;5050912;28;19925;-51
2021/09/08 05:38:20;;;;;;;;;;;;;;;15.08;80.75;101828.34;5050863;28;19924;-43
2021/09/08 05:40:48;;;;;;;;;;;;;;;15.03;81.00;101826.00;5050646;28;20342;-40
2021/09/08 05:43:15;;;;;;;;;;;;;;;15.06;80.81;101826.75;5049198;28;20338;-44
2021/09/08 05:45:43;;;;;;;;;;;;;;;15.09;80.75;101834.47;5050511;28;19931;-45
2021/09/08 05:48:10;;;;;;;;;;;;;;;15.12;80.67;101831.63;5065973;28;19925;-47
2021/09/08 05:50:37;;;;;;;;;;;;;;;15.10;80.72;101829.06;5050598;28;19971;-46
2021/09/08 05:53:03;;;;;;;;;;;;;;;15.09;80.76;101845.06;5065774;28;19982;-45
2021/09/08 05:55:30;;;;;;;;;;;;;;;15.13;80.77;101831.50;5050841;28;19932;-43
2021/09/08 05:57:57;;;;;;;;;;;;;;;15.17;80.68;101832.16;5048513;28;19924;-44
2021/09/08 06:00:24;;;;;;;;;;;;;;;15.24;80.61;101832.56;5050374;28;19924;-46
2021/09/08 06:02:50;;;;;;;;;;;;;;;15.24;80.38;101833.41;5049824;28;19933;-48
2021/09/08 06:05:18;;;;;;;;;;;;;;;15.40;80.22;101835.00;5049972;28;19935;-49
2021/09/08 06:07:44;;;;;;;;;;;;;;;15.35;80.14;101833.53;5050557;28;20388;-43
2021/09/08 06:10:17;;;;;;;;;;;;;;;15.37;79.90;101842.22;5050644;28;19932;-45
2021/09/08 06:12:44;;;;;;;;;;;;;;;15.39;79.99;101844.75;5048485;28;19951;-43
2021/09/08 06:15:11;;;;;;;;;;;;;;;15.40;79.99;101840.31;5050186;28;19928;-44
2021/09/08 06:17:39;;;;;;;;;;;;;;;15.49;80.12;101843.16;5050666;28;20261;-49
2021/09/08 06:20:06;;;;;;;;;;;;;;;15.54;79.90;101834.88;5065233;28;19936;-50
2021/09/08 06:22:32;;;;;;;;;;;;;;;15.60;79.85;101836.25;5049965;28;19968;-50
2021/09/08 06:24:59;;;;;;;;;;;;;;;15.70;79.06;101838.13;5049213;28;20307;-47
2021/09/08 06:27:26;;;;;;;;;;;;;;;15.78;79.27;101839.41;5048822;28;19947;-47
2021/09/08 06:29:52;;;;;;;;;;;;;;;15.78;79.03;101837.59;5050098;28;20019;-50
2021/09/08 06:32:20;;;;;;;;;;;;;;;15.89;79.34;101832.38;5065278;28;19925;-48
2021/09/08 06:34:48;;;;;;;;;;;;;;;15.97;78.58;101829.19;5049397;28;20283;-51
2021/09/08 06:37:15;;;;;;;;;;;;;;;15.98;78.91;101825.59;5048621;28;20354;-42
2021/09/08 06:39:42;;;;;;;;;;;;;;;16.10;78.72;101817.69;5050271;28;19925;-42
2021/09/08 06:42:09;;;;;;;;;;;;;;;16.20;78.14;101813.41;5047882;28;19960;-47
2021/09/08 06:44:35;;;;;;;;;;;;;;;16.22;78.06;101817.66;5049353;28;19954;-51
2021/09/08 06:47:02;;;;;;;;;;;;;;;16.28;77.67;101820.78;5050316;28;19935;-48
2021/09/08 06:49:29;;;;;;;;;;;;;;;16.30;77.36;101814.41;5049031;28;19929;-50
2021/09/08 06:51:55;;;;;;;;;;;;;;;16.35;77.57;101812.25;5048872;28;19971;-49
2021/09/08 06:54:22;;;;;;;;;;;;;;;16.44;77.36;101809.88;5049539;28;19925;-48
2021/09/08 06:56:49;;;;;;;;;;;;;;;16.63;76.45;101814.66;5047840;28;19983;-48
2021/09/08 06:59:15;;;;;;;;;;;;;;;16.64;76.52;101809.22;5047725;28;19978;-49
2021/09/08 07:01:42;;;;;;;;;;;;;;;16.70;76.72;101807.91;5050138;28;20012;-44
2021/09/08 07:04:09;;;;;;;;;;;;;;;16.78;76.38;101813.47;5049652;28;20457;-46
2021/09/08 07:06:36;;;;;;;;;;;;;;;16.94;75.64;101799.06;5049682;28;19929;-49
2021/09/08 07:09:02;;;;;;;;;;;;;;;17.00;75.54;101799.44;5048873;28;20481;-45
2021/09/08 07:11:29;;;;;;;;;;;;;;;17.10;75.67;101802.22;5049165;28;19929;-43
2021/09/08 07:13:56;;;;;;;;;;;;;;;17.23;75.03;101797.66;5048773;28;19928;-46
2021/09/08 07:16:22;;;;;;;;;;;;;;;17.33;75.12;101797.78;5048334;28;19953;-44
2021/09/08 07:18:49;;;;;;;;;;;;;;;17.54;74.50;101794.38;5049517;28;19978;-46
2021/09/08 07:21:15;;;;;;;;;;;;;;;17.70;74.80;101789.50;5049886;28;19929;-46
2021/09/08 07:23:42;;;;;;;;;;;;;;;17.89;73.08;101780.03;5049304;28;19929;-46
2021/09/08 07:26:09;;;;;;;;;;;;;;;18.05;73.52;101782.31;5053191;28;19960;-43
2021/09/08 07:28:35;;;;;;;;;;;;;;;18.16;71.96;101782.28;5051806;28;19957;-45
2021/09/08 07:31:02;;;;;;;;;;;;;;;18.37;70.89;101774.31;5052352;28;19924;-43
2021/09/08 07:33:29;;;;;;;;;;;;;;;18.58;70.62;101776.13;5053147;28;19929;-43
2021/09/08 07:35:55;;;;;;;;;;;;;;;18.69;70.35;101775.22;5053391;28;19937;-45
2021/09/08 07:38:24;;;;;;;;;;;;;;;18.87;70.72;101773.66;5053071;28;19982;-48
2021/09/08 07:40:51;;;;;;;;;;;;;;;19.17;69.97;101773.81;5053560;28;19967;-45
2021/09/08 07:43:18;;;;;;;;;;;;;;;19.31;69.11;101775.31;5051526;28;19925;-45
2021/09/08 07:45:46;;;;;;;;;;;;;;;19.45;68.11;101771.41;5053233;28;19964;-43
2021/09/08 07:48:13;;;;;;;;;;;;;;;19.75;67.63;101774.00;5053182;28;19929;-52
2021/09/08 07:50:39;;;;;;;;;;;;;;;19.94;67.32;101775.06;5052867;28;19979;-48
2021/09/08 07:53:09;;;;;;;;;;;;;;;20.18;66.55;101771.97;5068090;28;20736;-48
2021/09/08 07:55:36;;;;;;;;;;;;;;;20.28;66.69;101766.63;5051795;28;19933;-50
2021/09/08 07:58:03;;;;;;;;;;;;;;;20.42;65.09;101766.22;5051329;28;19986;-50
2021/09/08 08:00:32;;;;;;;;;;;;;;;20.61;64.62;101767.16;5068081;28;19936;-47
2021/09/08 08:02:58;;;;;;;;;;;;;;;20.79;64.52;101763.75;5053109;28;20547;-50
2021/09/08 08:05:26;;;;;;;;;;;;;;;20.91;63.93;101763.47;5067375;28;19928;-52
2021/09/08 08:07:53;;;;;;;;;;;;;;;21.11;64.17;101766.06;5052985;28;19925;-53
2021/09/08 08:10:19;;;;;;;;;;;;;;;21.25;61.93;101756.69;5067605;28;20320;-51
2021/09/08 08:12:46;;;;;;;;;;;;;;;21.51;62.13;101761.34;5050752;28;20955;-47
2021/09/08 08:15:14;;;;;;;;;;;;;;;21.68;62.06;101757.03;5052393;28;20390;-42
2021/09/08 08:17:41;;;;;;;;;;;;;;;21.89;61.42;101752.25;5052528;28;19978;-42
2021/09/08 08:20:08;;;;;;;;;;;;;;;22.04;59.78;101747.19;5067325;28;19928;-42
2021/09/08 08:22:36;;;;;;;;;;;;;;;22.22;59.54;101743.66;5051439;28;20414;-42
2021/09/08 08:25:05;;;;;;;;;;;;;;;22.48;59.31;101750.94;5052038;28;20010;-44
2021/09/08 08:27:33;;;;;;;;;;;;;;;22.50;57.83;101746.25;5050429;28;20007;-48
2021/09/08 08:30:00;;;;;;;;;;;;;;;22.66;57.09;101748.19;5051680;28;20419;-50
2021/09/08 08:32:26;;;;;;;;;;;;;;;22.91;57.40;101746.50;5067134;28;20366;-49
2021/09/08 08:34:53;;;;;;;;;;;;;;;23.03;56.67;101745.22;5051400;28;19929;-48
2021/09/08 08:37:19;;;;;;;;;;;;;;;23.24;56.24;101754.72;5050781;28;19924;-47
2021/09/08 08:39:46;;;;;;;;;;;;;;;23.49;55.22;101744.06;5052321;28;20568;-46
2021/09/08 08:42:20;;;;;;;;;;;;;;;23.58;54.99;101746.63;5050240;28;20364;-48
2021/09/08 08:44:47;;;;;;;;;;;;;;;23.88;53.82;101744.34;5051877;28;19932;-45
2021/09/08 08:47:14;;;;;;;;;;;;;;;24.10;53.65;101750.06;5067622;28;19936;-45
2021/09/08 08:49:41;;;;;;;;;;;;;;;24.34;53.05;101746.56;5051901;28;19925;-45
2021/09/08 08:52:07;;;;;;;;;;;;;;;24.24;52.50;101740.50;5066961;28;19944;-46
2021/09/08 08:54:35;;;;;;;;;;;;;;;24.36;51.36;101735.63;5067107;28;19947;-43
2021/09/08 08:57:01;;;;;;;;;;;;;;;24.37;52.00;101732.75;5049536;28;19925;-49
2021/09/08 08:59:28;;;;;;;;;;;;;;;24.44;51.67;101725.69;5051420;28;20032;-45
2021/09/08 09:01:55;;;;;;;;;;;;;;;24.67;51.23;101740.31;5067352;28;19932;-46
2021/09/08 09:04:22;;;;;;;;;;;;;;;24.97;50.83;101733.31;5050847;28;19975;-45
2021/09/08 09:06:49;;;;;;;;;;;;;;;25.05;50.21;101727.91;5050765;28;19933;-44
2021/09/08 09:09:16;;;;;;;;;;;;;;;25.29;50.25;101735.03;5051577;28;19928;-45
2021/09/08 09:11:47;;;;;;;;;;;;;;;25.51;48.73;101729.91;5066372;28;20014;-46
2021/09/08 09:14:14;;;;;;;;;;;;;;;25.55;49.16;101728.53;5051171;28;20372;-48
2021/09/08 09:16:43;;;;;;;;;;;;;;;25.67;47.75;101725.44;5051928;28;19964;-51
2021/09/08 09:19:11;;;;;;;;;;;;;;;25.67;49.34;101723.56;5066480;28;19929;-52
2021/09/08 09:21:38;;;;;;;;;;;;;;;25.83;48.91;101719.91;5050006;28;19932;-55
2021/09/08 09:24:05;;;;;;;;;;;;;;;26.08;49.95;101715.22;5051302;28;19925;-58
2021/09/08 09:26:33;;;;;;;;;;;;;;;26.15;48.62;101712.59;5049261;28;19959;-59
2021/09/08 09:29:09;;;;;;;;;;;;;;;26.37;46.84;101699.25;5050634;28;19932;-57
2021/09/08 09:31:52;;;;;;;;;;;;;;;26.68;47.72;101707.19;5050065;28;20287;-48
2021/09/08 09:34:20;;;;;;;;;;;;;;;26.91;45.96;101706.28;5050539;28;20284;-47
2021/09/08 09:36:48;;;;;;;;;;;;;;;26.98;45.36;101702.66;5066503;28;19928;-49
2021/09/08 09:39:14;;;;;;;;;;;;;;;27.13;44.58;101704.47;5066239;28;19929;-50
2021/09/08 09:41:41;;;;;;;;;;;;;;;27.41;43.77;101687.59;5048503;28;19990;-50
2021/09/08 09:44:09;;;;;;;;;;;;;;;27.65;44.34;101691.75;5050534;28;19936;-51
2021/09/08 09:46:39;;;;;;;;;;;;;;;27.62;43.09;101695.72;5049368;28;19956;-50
2021/09/08 09:49:06;;;;;;;;;;;;;;;27.83;43.36;101684.03;5064654;28;19932;-48
2021/09/08 09:51:33;;;;;;;;;;;;;;;27.73;42.72;101688.97;5050660;28;19975;-50
2021/09/08 09:54:00;;;;;;;;;;;;;;;27.93;41.93;101683.69;5065813;28;19963;-47
2021/09/08 09:56:26;;;;;;;;;;;;;;;28.09;41.54;101684.50;5050355;28;19928;-48
2021/09/08 09:58:53;;;;;;;;;;;;;;;28.32;41.11;101681.53;5049727;28;19932;-50
2021/09/08 10:01:20;;;;;;;;;;;;;;;28.21;41.26;101676.66;5050485;28;19978;-50
2021/09/08 10:03:47;;;;;;;;;;;;;;;28.23;40.42;101670.03;5049944;28;20287;-50
2021/09/08 10:06:15;;;;;;;;;;;;;;;28.65;40.76;101668.22;5065778;28;19925;-48
2021/09/08 10:08:42;;;;;;;;;;;;;;;28.79;40.76;101669.13;5050718;28;20290;-52
2021/09/08 10:11:10;;;;;;;;;;;;;;;28.91;41.16;101669.38;5049008;28;19925;-50
2021/09/08 10:13:39;;;;;;;;;;;;;;;28.87;40.92;101664.59;5048858;28;20355;-49
2021/09/08 10:16:06;;;;;;;;;;;;;;;29.00;40.57;101662.75;5049456;28;20384;-51
2021/09/08 10:18:33;;;;;;;;;;;;;;;29.09;40.06;101660.69;5050583;28;20019;-51
2021/09/08 10:21:01;;;;;;;;;;;;;;;29.15;39.75;101659.88;5050111;28;19931;-51
2021/09/08 10:23:28;;;;;;;;;;;;;;;29.40;40.38;101655.81;5050195;28;19924;-52
2021/09/08 10:25:55;;;;;;;;;;;;;;;29.58;40.34;101649.78;5065486;28;19924;-51
2021/09/08 10:28:23;;;;;;;;;;;;;;;29.71;39.65;101644.38;5047492;28;19924;-46
2021/09/08 10:30:49;;;;;;;;;;;;;;;29.76;38.44;101643.75;5048888;28;19925;-42
2021/09/08 10:33:16;;;;;;;;;;;;;;;30.00;40.24;101647.72;5065754;28;19932;-45
2021/09/08 10:35:43;;;;;;;;;;;;;;;30.37;38.69;101641.81;5065536;28;19929;-45
2021/09/08 10:38:14;;;;;;;;;;;;;;;30.12;37.87;101640.63;5065278;28;19955;-46
2021/09/08 10:40:42;;;;;;;;;;;;;;;30.44;37.13;101634.47;5049765;28;19929;-44
2021/09/08 10:43:09;;;;;;;;;;;;;;;30.44;36.07;101627.19;5048702;28;19925;-42
2021/09/08 10:45:36;;;;;;;;;;;;;;;30.49;37.08;101626.56;5049925;28;20336;-43
2021/09/08 10:48:03;;;;;;;;;;;;;;;30.14;37.19;101630.38;5065443;28;20307;-43
2021/09/08 10:50:43;;;;;;;;;;;;;;;30.30;37.69;101620.94;5048038;28;19925;-43
2021/09/08 10:53:16;;;;;;;;;;;;;;;30.70;37.97;101620.00;5049606;28;19975;-43
2021/09/08 10:55:44;;;;;;;;;;;;;;;31.13;37.70;101610.41;5049929;28;20379;-43
2021/09/08 10:58:10;;;;;;;;;;;;;;;31.32;35.90;101609.44;5049063;28;19924;-42
2021/09/08 11:00:41;;;;;;;;;;;;;;;31.34;36.20;101609.22;5052641;28;19939;-43
2021/09/08 11:03:10;;;;;;;;;;;;;;;31.47;36.05;101611.84;5053046;28;20027;-41
2021/09/08 11:05:56;;;;;;;;;;;;;;;31.60;34.58;101602.75;5068965;28;19935;-45
2021/09/08 11:08:23;;;;;;;;;;;;;;;31.74;35.70;101599.91;5053362;28;19929;-43
2021/09/08 11:11:12;;;;;;;;;;;;;;;31.67;34.79;101592.69;5052431;28;20016;-42
2021/09/08 11:13:39;;;;;;;;;;;;;;;31.78;34.60;101591.13;5052192;28;19931;-43
2021/09/08 11:16:26;;;;;;;;;;;;;;;32.02;33.59;101586.66;5053636;28;19933;-42
2021/09/08 11:18:54;;;;;;;;;;;;;;;32.22;32.90;101585.66;5053335;28;19978;-51
2021/09/08 11:21:24;;;;;;;;;;;;;;;32.12;33.22;101590.75;5052072;28;19925;-52
2021/09/08 11:24:04;;;;;;;;;;;;;;;31.63;34.33;101583.31;5052758;28;19925;-51
2021/09/08 11:26:32;;;;;;;;;;;;;;;32.01;34.08;101581.44;5067541;28;19950;-49
2021/09/08 11:29:05;;;;;;;;;;;;;;;32.27;32.89;101579.53;5051783;28;19931;-50
2021/09/08 11:31:33;;;;;;;;;;;;;;;32.45;32.46;101581.38;5053119;28;19925;-49
2021/09/08 11:34:01;;;;;;;;;;;;;;;32.26;32.22;101586.00;5053446;28;20315;-50
2021/09/08 11:36:27;;;;;;;;;;;;;;;32.79;31.82;101582.66;5052899;28;19940;-50
2021/09/08 11:38:58;;;;;;;;;;;;;;;33.10;32.88;101579.91;5053392;28;20367;-48
2021/09/08 11:41:25;;;;;;;;;;;;;;;33.19;31.90;101573.88;5052606;28;19933;-51
2021/09/08 11:43:53;;;;;;;;;;;;;;;33.17;30.64;101565.13;5051103;28;19929;-52
2021/09/08 11:46:20;;;;;;;;;;;;;;;32.79;31.50;101565.47;5034684;28;19925;-51
2021/09/08 11:48:48;;;;;;;;;;;;;;;33.09;31.26;101561.88;5052689;28;19939;-51
2021/09/08 11:51:16;;;;;;;;;;;;;;;32.98;31.86;101558.91;5053251;28;20011;-48
2021/09/08 11:53:43;;;;;;;;;;;;;;;33.43;31.14;101556.75;5051733;28;19929;-51
2021/09/08 11:56:14;;;;;;;;;;;;;;;32.85;30.40;101559.94;5053137;28;20453;-48
2021/09/08 11:58:41;;;;;;;;;;;;;;;32.88;30.92;101558.63;5067506;28;19947;-52
2021/09/08 12:01:12;;;;;;;;;;;;;;;32.89;31.09;101560.31;5068358;28;19979;-50
2021/09/08 12:03:40;;;;;;;;;;;;;;;32.39;31.90;101561.38;5068127;28;20368;-50
2021/09/08 12:06:10;;;;;;;;;;;;;;;32.56;32.20;101549.84;5068388;28;20438;-52
2021/09/08 12:08:37;;;;;;;;;;;;;;;33.27;31.32;101539.19;5052389;28;20309;-48
2021/09/08 12:11:04;;;;;;;;;;;;;;;33.41;31.40;101543.38;5050506;28;19925;-53
2021/09/08 12:13:33;;;;;;;;;;;;;;;33.53;30.57;101540.66;5050019;28;20333;-51
2021/09/08 12:16:00;;;;;;;;;;;;;;;33.66;30.99;101537.69;5052947;28;19948;-52
2021/09/08 12:18:27;;;;;;;;;;;;;;;33.81;30.58;101541.84;5067875;28;20449;-50
2021/09/08 12:20:55;;;;;;;;;;;;;;;33.95;28.79;101540.53;5052407;28;20334;-52
2021/09/08 12:23:26;;;;;;;;;;;;;;;34.41;28.29;101534.34;5067304;28;19994;-51
2021/09/08 12:26:22;;;;;;;;;;;;;;;33.81;28.44;101523.56;5052404;28;20376;-53
2021/09/08 12:29:04;;;;;;;;;;;;;;;34.85;28.91;101524.56;5050690;28;20384;-52
2021/09/08 12:31:31;;;;;;;;;;;;;;;34.77;28.31;101527.66;5067569;28;20520;-48
2021/09/08 12:33:58;;;;;;;;;;;;;;;35.13;28.35;101525.53;5067327;28;19932;-49
2021/09/08 12:36:25;;;;;;;;;;;;;;;35.24;27.79;101520.25;5051502;28;20338;-50